sensor_id;sensor_type;location;lat;lon;timestamp;pressure;altitude;pressure_sealevel;temperature;humidity
71107;BME280;58763;47.982;11.516;2022-07-01T00:00:09;94048.16;;;18.50;77.57
71107;BME280;58763;47.982;11.516;2022-07-01T00:02:34;94063.06;;;18.53;77.62
71107;BME280;58763;47.982;11.516;2022-07-01T00:05:00;94061.22;;;18.45;78.25
71107;BME280;58763;47.982;11.516;2022-07-01T00:07:25;94064.72;;;18.33;78.58
71107;BME280;58763;47.982;11.516;2022-07-01T00:09:51;94069.25;;;18.29;78.77
71107;BME280;58763;47.982;11.516;2022-07-01T00:12:16;94075.44;;;18.38;79.03
71107;BME280;58763;47.982;11.516;2022-07-01T00:14:42;94082.19;;;18.41;78.60
71107;BME280;58763;47.982;11.516;2022-07-01T00:17:08;94083.97;;;18.37;78.00
71107;BME280;58763;47.982;11.516;2022-07-01T00:19:34;94087.97;;;18.27;77.05
71107;BME280;58763;47.982;11.516;2022-07-01T00:21:59;94102.50;;;18.19;77.19
71107;BME280;58763;47.982;11.516;2022-07-01T00:24:25;94093.16;;;18.20;77.13
71107;BME280;58763;47.982;11.516;2022-07-01T00:26:52;94094.00;;;18.33;77.55
71107;BME280;58763;47.982;11.516;2022-07-01T00:29:17;94094.09;;;18.24;77.10
71107;BME280;58763;47.982;11.516;2022-07-01T00:31:43;94082.69;;;18.22;76.80
71107;BME280;58763;47.982;11.516;2022-07-01T00:34:08;94080.22;;;18.29;77.09
71107;BME280;58763;47.982;11.516;2022-07-01T00:36:34;94083.53;;;18.35;76.84
71107;BME280;58763;47.982;11.516;2022-07-01T00:38:59;94078.47;;;18.25;77.11
71107;BME280;58763;47.982;11.516;2022-07-01T00:41:25;94076.84;;;18.44;76.54
71107;BME280;58763;47.982;11.516;2022-07-01T00:43:51;94085.34;;;18.51;75.97
71107;BME280;58763;47.982;11.516;2022-07-01T00:46:17;94085.59;;;18.58;74.68
71107;BME280;58763;47.982;11.516;2022-07-01T00:48:43;94095.47;;;18.51;73.49
71107;BME280;58763;47.982;11.516;2022-07-01T00:51:09;94105.97;;;18.49;73.10
71107;BME280;58763;47.982;11.516;2022-07-01T00:53:35;94105.66;;;18.62;72.38
71107;BME280;58763;47.982;11.516;2022-07-01T00:56:01;94118.53;;;18.50;71.37
71107;BME280;58763;47.982;11.516;2022-07-01T00:58:27;94117.53;;;18.54;70.83
71107;BME280;58763;47.982;11.516;2022-07-01T01:00:54;94118.44;;;18.58;70.35
71107;BME280;58763;47.982;11.516;2022-07-01T01:03:20;94122.66;;;18.56;69.41
71107;BME280;58763;47.982;11.516;2022-07-01T01:05:45;94125.59;;;18.51;69.44
71107;BME280;58763;47.982;11.516;2022-07-01T01:08:11;94139.63;;;18.49;69.11
71107;BME280;58763;47.982;11.516;2022-07-01T01:10:37;94137.97;;;18.36;69.03
71107;BME280;58763;47.982;11.516;2022-07-01T01:13:03;94136.69;;;18.13;69.94
71107;BME280;58763;47.982;11.516;2022-07-01T01:15:31;94136.09;;;17.78;70.16
71107;BME280;58763;47.982;11.516;2022-07-01T01:17:57;94124.56;;;17.73;70.95
71107;BME280;58763;47.982;11.516;2022-07-01T01:20:23;94129.13;;;17.60;71.36
71107;BME280;58763;47.982;11.516;2022-07-01T01:22:48;94136.69;;;17.63;71.60
71107;BME280;58763;47.982;11.516;2022-07-01T01:25:15;94129.28;;;17.64;71.74
71107;BME280;58763;47.982;11.516;2022-07-01T01:27:41;94116.75;;;17.63;71.88
71107;BME280;58763;47.982;11.516;2022-07-01T01:30:08;94117.94;;;17.74;71.79
71107;BME280;58763;47.982;11.516;2022-07-01T01:32:35;94114.03;;;17.83;71.51
71107;BME280;58763;47.982;11.516;2022-07-01T01:35:01;94100.16;;;17.88;71.79
71107;BME280;58763;47.982;11.516;2022-07-01T01:37:26;94108.91;;;17.82;72.18
71107;BME280;58763;47.982;11.516;2022-07-01T01:39:53;94095.50;;;17.68;72.89
71107;BME280;58763;47.982;11.516;2022-07-01T01:42:18;94094.28;;;17.57;72.87
71107;BME280;58763;47.982;11.516;2022-07-01T01:44:44;94088.81;;;17.49;73.64
71107;BME280;58763;47.982;11.516;2022-07-01T01:47:09;94082.13;;;17.38;73.86
71107;BME280;58763;47.982;11.516;2022-07-01T01:49:35;94072.03;;;17.29;74.03
71107;BME280;58763;47.982;11.516;2022-07-01T01:52:00;94074.47;;;17.22;74.11
71107;BME280;58763;47.982;11.516;2022-07-01T01:54:26;94078.28;;;17.01;75.18
71107;BME280;58763;47.982;11.516;2022-07-01T01:56:52;94070.97;;;17.13;74.95
71107;BME280;58763;47.982;11.516;2022-07-01T01:59:18;94078.47;;;17.25;73.81
71107;BME280;58763;47.982;11.516;2022-07-01T02:01:43;94080.03;;;17.35;73.74
71107;BME280;58763;47.982;11.516;2022-07-01T02:04:09;94091.31;;;17.33;74.34
71107;BME280;58763;47.982;11.516;2022-07-01T02:06:35;94091.66;;;17.32;74.07
71107;BME280;58763;47.982;11.516;2022-07-01T02:09:00;94097.78;;;17.58;73.39
71107;BME280;58763;47.982;11.516;2022-07-01T02:11:26;94105.16;;;17.66;73.37
71107;BME280;58763;47.982;11.516;2022-07-01T02:13:52;94111.19;;;17.80;72.78
71107;BME280;58763;47.982;11.516;2022-07-01T02:16:18;94118.91;;;17.78;72.44
71107;BME280;58763;47.982;11.516;2022-07-01T02:18:43;94120.19;;;17.80;72.58
71107;BME280;58763;47.982;11.516;2022-07-01T02:21:09;94116.56;;;17.68;73.05
71107;BME280;58763;47.982;11.516;2022-07-01T02:23:35;94133.44;;;17.70;72.73
71107;BME280;58763;47.982;11.516;2022-07-01T02:26:00;94136.25;;;17.82;72.74
71107;BME280;58763;47.982;11.516;2022-07-01T02:28:26;94134.25;;;17.91;72.20
71107;BME280;58763;47.982;11.516;2022-07-01T02:30:51;94128.41;;;18.01;71.77
71107;BME280;58763;47.982;11.516;2022-07-01T02:33:16;94135.00;;;18.00;71.70
71107;BME280;58763;47.982;11.516;2022-07-01T02:35:42;94134.16;;;18.08;71.69
71107;BME280;58763;47.982;11.516;2022-07-01T02:38:08;94129.06;;;18.19;71.14
71107;BME280;58763;47.982;11.516;2022-07-01T02:40:34;94137.63;;;18.17;71.62
71107;BME280;58763;47.982;11.516;2022-07-01T02:43:03;94138.19;;;18.02;71.98
71107;BME280;58763;47.982;11.516;2022-07-01T02:45:28;94137.75;;;18.00;72.26
71107;BME280;58763;47.982;11.516;2022-07-01T02:47:54;94144.13;;;18.04;72.25
71107;BME280;58763;47.982;11.516;2022-07-01T02:50:19;94144.00;;;18.01;71.74
71107;BME280;58763;47.982;11.516;2022-07-01T02:52:45;94132.72;;;18.02;72.13
71107;BME280;58763;47.982;11.516;2022-07-01T02:55:12;94131.25;;;18.05;71.98
71107;BME280;58763;47.982;11.516;2022-07-01T02:57:39;94132.47;;;18.16;71.55
71107;BME280;58763;47.982;11.516;2022-07-01T03:00:07;94138.09;;;18.19;71.74
71107;BME280;58763;47.982;11.516;2022-07-01T03:02:33;94130.81;;;18.23;71.52
71107;BME280;58763;47.982;11.516;2022-07-01T03:04:58;94136.97;;;18.20;71.14
71107;BME280;58763;47.982;11.516;2022-07-01T03:07:24;94132.28;;;18.21;71.61
71107;BME280;58763;47.982;11.516;2022-07-01T03:09:50;94147.50;;;18.30;71.32
71107;BME280;58763;47.982;11.516;2022-07-01T03:12:15;94153.31;;;18.29;71.61
71107;BME280;58763;47.982;11.516;2022-07-01T03:14:55;94152.38;;;18.25;71.74
71107;BME280;58763;47.982;11.516;2022-07-01T03:17:25;94146.03;;;18.33;71.42
71107;BME280;58763;47.982;11.516;2022-07-01T03:19:51;94145.44;;;18.27;71.51
71107;BME280;58763;47.982;11.516;2022-07-01T03:22:18;94154.13;;;18.29;71.58
71107;BME280;58763;47.982;11.516;2022-07-01T03:24:44;94147.75;;;18.37;71.42
71107;BME280;58763;47.982;11.516;2022-07-01T03:27:09;94148.09;;;18.36;71.16
71107;BME280;58763;47.982;11.516;2022-07-01T03:29:35;94148.56;;;18.38;71.37
71107;BME280;58763;47.982;11.516;2022-07-01T03:32:01;94154.03;;;18.38;71.11
71107;BME280;58763;47.982;11.516;2022-07-01T03:34:26;94154.69;;;18.35;71.53
71107;BME280;58763;47.982;11.516;2022-07-01T03:36:51;94152.78;;;18.35;71.37
71107;BME280;58763;47.982;11.516;2022-07-01T03:39:17;94151.66;;;18.36;71.69
71107;BME280;58763;47.982;11.516;2022-07-01T03:41:42;94155.69;;;18.30;71.68
71107;BME280;58763;47.982;11.516;2022-07-01T03:44:08;94160.72;;;18.28;71.77
71107;BME280;58763;47.982;11.516;2022-07-01T03:46:33;94163.66;;;18.23;71.95
71107;BME280;58763;47.982;11.516;2022-07-01T03:49:01;94172.00;;;18.27;72.08
71107;BME280;58763;47.982;11.516;2022-07-01T03:51:27;94172.41;;;18.37;71.97
71107;BME280;58763;47.982;11.516;2022-07-01T03:53:53;94172.59;;;18.32;72.36
71107;BME280;58763;47.982;11.516;2022-07-01T03:56:37;94173.78;;;18.23;72.91
71107;BME280;58763;47.982;11.516;2022-07-01T03:59:02;94167.25;;;18.15;73.18
71107;BME280;58763;47.982;11.516;2022-07-01T04:01:28;94175.94;;;18.17;73.08
71107;BME280;58763;47.982;11.516;2022-07-01T04:03:53;94173.06;;;18.14;73.20
71107;BME280;58763;47.982;11.516;2022-07-01T04:06:19;94168.19;;;18.19;73.26
71107;BME280;58763;47.982;11.516;2022-07-01T04:08:46;94164.09;;;18.25;73.25
71107;BME280;58763;47.982;11.516;2022-07-01T04:11:12;94153.66;;;18.27;73.25
71107;BME280;58763;47.982;11.516;2022-07-01T04:13:38;94147.22;;;18.23;72.98
71107;BME280;58763;47.982;11.516;2022-07-01T04:16:04;94143.44;;;18.36;73.02
71107;BME280;58763;47.982;11.516;2022-07-01T04:18:30;94147.09;;;18.40;72.70
71107;BME280;58763;47.982;11.516;2022-07-01T04:20:56;94155.72;;;18.51;72.13
71107;BME280;58763;47.982;11.516;2022-07-01T04:23:41;94152.88;;;18.47;72.02
71107;BME280;58763;47.982;11.516;2022-07-01T04:26:06;94155.59;;;18.47;72.02
71107;BME280;58763;47.982;11.516;2022-07-01T04:28:31;94149.47;;;18.50;72.00
71107;BME280;58763;47.982;11.516;2022-07-01T04:30:57;94161.59;;;18.41;72.31
71107;BME280;58763;47.982;11.516;2022-07-01T04:33:22;94149.84;;;18.40;72.16
71107;BME280;58763;47.982;11.516;2022-07-01T04:35:48;94137.88;;;18.45;72.25
71107;BME280;58763;47.982;11.516;2022-07-01T04:38:13;94123.88;;;18.46;72.06
71107;BME280;58763;47.982;11.516;2022-07-01T04:40:38;94121.53;;;18.57;72.12
71107;BME280;58763;47.982;11.516;2022-07-01T04:43:04;94120.63;;;18.65;71.75
71107;BME280;58763;47.982;11.516;2022-07-01T04:45:29;94115.53;;;18.76;71.32
71107;BME280;58763;47.982;11.516;2022-07-01T04:47:54;94127.00;;;18.90;70.68
71107;BME280;58763;47.982;11.516;2022-07-01T04:50:20;94099.56;;;18.78;70.83
71107;BME280;58763;47.982;11.516;2022-07-01T04:52:46;94099.78;;;18.73;70.82
71107;BME280;58763;47.982;11.516;2022-07-01T04:55:11;94076.94;;;18.69;70.64
71107;BME280;58763;47.982;11.516;2022-07-01T04:57:37;94087.34;;;18.75;70.85
71107;BME280;58763;47.982;11.516;2022-07-01T05:00:03;94105.97;;;18.82;70.61
71107;BME280;58763;47.982;11.516;2022-07-01T05:02:28;94110.31;;;18.83;70.46
71107;BME280;58763;47.982;11.516;2022-07-01T05:04:54;94130.16;;;18.80;70.66
71107;BME280;58763;47.982;11.516;2022-07-01T05:07:19;94140.78;;;18.81;70.60
71107;BME280;58763;47.982;11.516;2022-07-01T05:09:54;94123.81;;;18.88;70.68
71107;BME280;58763;47.982;11.516;2022-07-01T05:12:21;94117.94;;;18.77;70.92
71107;BME280;58763;47.982;11.516;2022-07-01T05:14:46;94111.91;;;18.84;71.43
71107;BME280;58763;47.982;11.516;2022-07-01T05:17:12;94100.41;;;18.90;70.89
71107;BME280;58763;47.982;11.516;2022-07-01T05:19:37;94085.56;;;18.91;70.96
71107;BME280;58763;47.982;11.516;2022-07-01T05:22:21;94085.69;;;18.95;71.57
71107;BME280;58763;47.982;11.516;2022-07-01T05:24:47;94093.91;;;19.07;71.53
71107;BME280;58763;47.982;11.516;2022-07-01T05:27:12;94111.16;;;19.07;72.29
71107;BME280;58763;47.982;11.516;2022-07-01T05:29:37;94117.00;;;19.06;72.42
71107;BME280;58763;47.982;11.516;2022-07-01T05:32:03;94127.59;;;19.07;72.21
71107;BME280;58763;47.982;11.516;2022-07-01T05:34:29;94131.59;;;19.10;72.38
71107;BME280;58763;47.982;11.516;2022-07-01T05:36:54;94128.19;;;19.13;72.21
71107;BME280;58763;47.982;11.516;2022-07-01T05:39:19;94135.75;;;19.16;72.32
71107;BME280;58763;47.982;11.516;2022-07-01T05:41:45;94152.06;;;19.12;71.94
71107;BME280;58763;47.982;11.516;2022-07-01T05:44:10;94150.22;;;19.16;71.83
71107;BME280;58763;47.982;11.516;2022-07-01T05:46:36;94170.59;;;19.27;71.77
71107;BME280;58763;47.982;11.516;2022-07-01T05:49:02;94183.97;;;19.29;72.13
71107;BME280;58763;47.982;11.516;2022-07-01T05:51:27;94186.00;;;19.20;72.61
71107;BME280;58763;47.982;11.516;2022-07-01T05:53:53;94191.94;;;19.22;71.76
71107;BME280;58763;47.982;11.516;2022-07-01T05:56:18;94177.78;;;19.20;72.05
71107;BME280;58763;47.982;11.516;2022-07-01T05:58:43;94178.44;;;19.17;71.81
71107;BME280;58763;47.982;11.516;2022-07-01T06:01:09;94199.38;;;19.21;71.67
71107;BME280;58763;47.982;11.516;2022-07-01T06:03:35;94191.59;;;19.23;71.55
71107;BME280;58763;47.982;11.516;2022-07-01T06:06:00;94184.88;;;19.33;70.93
71107;BME280;58763;47.982;11.516;2022-07-01T06:08:25;94197.53;;;19.25;71.30
71107;BME280;58763;47.982;11.516;2022-07-01T06:10:51;94207.75;;;19.37;71.41
71107;BME280;58763;47.982;11.516;2022-07-01T06:13:16;94207.34;;;19.47;70.77
71107;BME280;58763;47.982;11.516;2022-07-01T06:15:42;94217.53;;;19.59;70.29
71107;BME280;58763;47.982;11.516;2022-07-01T06:18:07;94216.41;;;19.72;69.78
71107;BME280;58763;47.982;11.516;2022-07-01T06:20:32;94224.97;;;19.82;67.63
71107;BME280;58763;47.982;11.516;2022-07-01T06:22:58;94228.09;;;19.81;67.62
71107;BME280;58763;47.982;11.516;2022-07-01T06:25:23;94242.50;;;19.90;67.52
71107;BME280;58763;47.982;11.516;2022-07-01T06:27:49;94247.84;;;19.86;67.70
71107;BME280;58763;47.982;11.516;2022-07-01T06:30:14;94229.22;;;19.92;67.49
71107;BME280;58763;47.982;11.516;2022-07-01T06:32:40;94239.63;;;19.98;67.14
71107;BME280;58763;47.982;11.516;2022-07-01T06:35:06;94242.13;;;19.91;67.06
71107;BME280;58763;47.982;11.516;2022-07-01T06:37:33;94243.75;;;19.80;67.20
71107;BME280;58763;47.982;11.516;2022-07-01T06:40:00;94239.50;;;19.71;68.04
71107;BME280;58763;47.982;11.516;2022-07-01T06:42:25;94225.75;;;19.59;68.89
71107;BME280;58763;47.982;11.516;2022-07-01T06:44:51;94224.84;;;19.55;69.42
71107;BME280;58763;47.982;11.516;2022-07-01T06:47:16;94230.56;;;19.62;69.38
71107;BME280;58763;47.982;11.516;2022-07-01T06:49:42;94234.25;;;19.78;68.86
71107;BME280;58763;47.982;11.516;2022-07-01T06:52:07;94230.03;;;19.80;68.93
71107;BME280;58763;47.982;11.516;2022-07-01T06:54:33;94228.84;;;19.81;68.15
71107;BME280;58763;47.982;11.516;2022-07-01T06:57:03;94224.31;;;19.85;67.55
71107;BME280;58763;47.982;11.516;2022-07-01T06:59:29;94230.81;;;19.93;68.14
71107;BME280;58763;47.982;11.516;2022-07-01T07:01:55;94234.34;;;19.93;68.21
71107;BME280;58763;47.982;11.516;2022-07-01T07:04:20;94234.81;;;19.95;68.43
71107;BME280;58763;47.982;11.516;2022-07-01T07:06:45;94237.56;;;20.08;67.56
71107;BME280;58763;47.982;11.516;2022-07-01T07:09:11;94233.91;;;20.16;67.20
71107;BME280;58763;47.982;11.516;2022-07-01T07:11:36;94230.25;;;19.99;67.56
71107;BME280;58763;47.982;11.516;2022-07-01T07:14:01;94227.38;;;19.96;68.26
71107;BME280;58763;47.982;11.516;2022-07-01T07:16:27;94235.19;;;20.06;68.19
71107;BME280;58763;47.982;11.516;2022-07-01T07:18:53;94222.72;;;20.09;67.06
71107;BME280;58763;47.982;11.516;2022-07-01T07:21:18;94231.63;;;20.06;67.33
71107;BME280;58763;47.982;11.516;2022-07-01T07:23:44;94217.66;;;19.98;68.29
71107;BME280;58763;47.982;11.516;2022-07-01T07:26:10;94221.66;;;19.77;68.74
71107;BME280;58763;47.982;11.516;2022-07-01T07:28:36;94227.97;;;19.89;68.76
71107;BME280;58763;47.982;11.516;2022-07-01T07:31:01;94222.91;;;19.79;68.36
71107;BME280;58763;47.982;11.516;2022-07-01T07:33:27;94227.75;;;19.94;68.29
71107;BME280;58763;47.982;11.516;2022-07-01T07:35:52;94229.81;;;19.97;67.67
71107;BME280;58763;47.982;11.516;2022-07-01T07:38:18;94232.88;;;20.08;68.08
71107;BME280;58763;47.982;11.516;2022-07-01T07:40:43;94230.47;;;20.19;67.58
71107;BME280;58763;47.982;11.516;2022-07-01T07:43:08;94221.78;;;20.17;67.52
71107;BME280;58763;47.982;11.516;2022-07-01T07:45:34;94226.03;;;20.26;67.71
71107;BME280;58763;47.982;11.516;2022-07-01T07:48:00;94230.03;;;20.41;68.07
71107;BME280;58763;47.982;11.516;2022-07-01T07:50:26;94228.63;;;20.47;66.72
71107;BME280;58763;47.982;11.516;2022-07-01T07:52:52;94230.91;;;20.69;66.03
71107;BME280;58763;47.982;11.516;2022-07-01T07:55:18;94236.00;;;20.83;65.27
71107;BME280;58763;47.982;11.516;2022-07-01T07:57:43;94233.50;;;20.78;64.92
71107;BME280;58763;47.982;11.516;2022-07-01T08:00:11;94243.69;;;20.77;64.89
71107;BME280;58763;47.982;11.516;2022-07-01T08:02:38;94251.56;;;20.39;65.77
71107;BME280;58763;47.982;11.516;2022-07-01T08:05:03;94258.03;;;20.10;66.53
71107;BME280;58763;47.982;11.516;2022-07-01T08:07:29;94276.22;;;19.78;67.18
71107;BME280;58763;47.982;11.516;2022-07-01T08:09:54;94291.34;;;19.52;67.98
71107;BME280;58763;47.982;11.516;2022-07-01T08:12:20;94307.13;;;18.51;67.24
71107;BME280;58763;47.982;11.516;2022-07-01T08:14:47;94331.84;;;17.16;69.84
71107;BME280;58763;47.982;11.516;2022-07-01T08:17:12;94348.03;;;16.05;73.66
71107;BME280;58763;47.982;11.516;2022-07-01T08:19:38;94353.47;;;15.65;74.68
71107;BME280;58763;47.982;11.516;2022-07-01T08:22:03;94362.13;;;15.45;75.24
71107;BME280;58763;47.982;11.516;2022-07-01T08:24:29;94372.28;;;15.09;74.88
71107;BME280;58763;47.982;11.516;2022-07-01T08:26:54;94369.25;;;14.88;75.14
71107;BME280;58763;47.982;11.516;2022-07-01T08:29:19;94368.16;;;14.76;75.70
71107;BME280;58763;47.982;11.516;2022-07-01T08:31:45;94385.75;;;14.56;76.68
71107;BME280;58763;47.982;11.516;2022-07-01T08:34:10;94392.59;;;14.40;78.33
71107;BME280;58763;47.982;11.516;2022-07-01T08:36:36;94402.78;;;14.34;78.55
71107;BME280;58763;47.982;11.516;2022-07-01T08:39:02;94397.91;;;14.59;77.91
71107;BME280;58763;47.982;11.516;2022-07-01T08:41:28;94404.47;;;14.71;76.65
71107;BME280;58763;47.982;11.516;2022-07-01T08:43:54;94398.34;;;14.38;77.07
71107;BME280;58763;47.982;11.516;2022-07-01T08:46:21;94403.97;;;14.28;77.64
71107;BME280;58763;47.982;11.516;2022-07-01T08:48:46;94405.59;;;14.16;77.80
71107;BME280;58763;47.982;11.516;2022-07-01T08:51:12;94415.88;;;14.19;78.87
71107;BME280;58763;47.982;11.516;2022-07-01T08:53:38;94420.28;;;14.01;78.70
71107;BME280;58763;47.982;11.516;2022-07-01T08:56:04;94419.16;;;13.88;79.06
71107;BME280;58763;47.982;11.516;2022-07-01T08:58:48;94410.78;;;13.71;79.92
71107;BME280;58763;47.982;11.516;2022-07-01T09:01:26;94412.00;;;13.79;80.75
71107;BME280;58763;47.982;11.516;2022-07-01T09:03:54;94413.59;;;13.80;80.03
71107;BME280;58763;47.982;11.516;2022-07-01T09:06:22;94413.53;;;13.85;79.58
71107;BME280;58763;47.982;11.516;2022-07-01T09:08:48;94407.16;;;13.76;80.01
71107;BME280;58763;47.982;11.516;2022-07-01T09:11:22;94422.75;;;13.84;80.38
71107;BME280;58763;47.982;11.516;2022-07-01T09:16:46;94436.47;;;13.79;81.65
71107;BME280;58763;47.982;11.516;2022-07-01T09:19:13;94424.38;;;13.85;80.56
71107;BME280;58763;47.982;11.516;2022-07-01T09:21:39;94439.00;;;13.89;80.65
71107;BME280;58763;47.982;11.516;2022-07-01T09:24:21;94432.06;;;13.97;80.13
71107;BME280;58763;47.982;11.516;2022-07-01T09:26:58;94437.72;;;14.00;79.67
71107;BME280;58763;47.982;11.516;2022-07-01T09:29:32;94443.53;;;14.07;79.60
71107;BME280;58763;47.982;11.516;2022-07-01T09:32:04;94447.38;;;14.20;80.05
71107;BME280;58763;47.982;11.516;2022-07-01T09:34:34;94454.34;;;14.26;79.55
71107;BME280;58763;47.982;11.516;2022-07-01T09:37:00;94451.72;;;14.21;79.17
71107;BME280;58763;47.982;11.516;2022-07-01T09:39:26;94451.25;;;14.32;79.02
71107;BME280;58763;47.982;11.516;2022-07-01T09:41:56;94451.63;;;14.26;79.46
71107;BME280;58763;47.982;11.516;2022-07-01T09:44:21;94442.75;;;14.20;79.90
71107;BME280;58763;47.982;11.516;2022-07-01T09:46:55;94445.34;;;13.98;79.17
71107;BME280;58763;47.982;11.516;2022-07-01T09:49:22;94448.19;;;13.93;80.78
71107;BME280;58763;47.982;11.516;2022-07-01T09:51:51;94450.69;;;14.03;80.76
71107;BME280;58763;47.982;11.516;2022-07-01T09:54:17;94461.72;;;14.25;79.84
71107;BME280;58763;47.982;11.516;2022-07-01T09:56:43;94461.91;;;14.29;79.17
71107;BME280;58763;47.982;11.516;2022-07-01T09:59:09;94459.66;;;14.17;78.78
71107;BME280;58763;47.982;11.516;2022-07-01T10:01:36;94467.13;;;14.12;80.18
71107;BME280;58763;47.982;11.516;2022-07-01T10:04:04;94477.97;;;14.30;79.69
71107;BME280;58763;47.982;11.516;2022-07-01T10:11:47;94472.25;;;14.13;79.40
71107;BME280;58763;47.982;11.516;2022-07-01T10:14:17;94480.84;;;13.74;82.13
71107;BME280;58763;47.982;11.516;2022-07-01T10:16:47;94482.75;;;13.74;80.55
71107;BME280;58763;47.982;11.516;2022-07-01T10:21:45;94503.03;;;13.81;81.37
71107;BME280;58763;47.982;11.516;2022-07-01T10:24:16;94507.38;;;13.96;81.52
71107;BME280;58763;47.982;11.516;2022-07-01T10:26:42;94512.38;;;13.89;80.64
71107;BME280;58763;47.982;11.516;2022-07-01T10:29:33;94511.19;;;13.81;81.37
71107;BME280;58763;47.982;11.516;2022-07-01T10:34:43;94499.72;;;13.98;80.91
71107;BME280;58763;47.982;11.516;2022-07-01T10:37:12;94508.00;;;14.07;80.50
71107;BME280;58763;47.982;11.516;2022-07-01T10:42:18;94492.13;;;14.27;80.52
71107;BME280;58763;47.982;11.516;2022-07-01T10:45:06;94500.28;;;14.27;79.16
71107;BME280;58763;47.982;11.516;2022-07-01T10:47:32;94498.59;;;14.31;80.25
71107;BME280;58763;47.982;11.516;2022-07-01T10:50:08;94502.44;;;14.44;80.30
71107;BME280;58763;47.982;11.516;2022-07-01T10:52:34;94499.22;;;14.56;79.58
71107;BME280;58763;47.982;11.516;2022-07-01T10:55:02;94500.03;;;14.70;79.65
71107;BME280;58763;47.982;11.516;2022-07-01T10:57:39;94504.97;;;14.81;78.65
71107;BME280;58763;47.982;11.516;2022-07-01T11:02:35;94519.56;;;14.99;77.85
71107;BME280;58763;47.982;11.516;2022-07-01T11:05:08;94513.09;;;15.08;77.51
71107;BME280;58763;47.982;11.516;2022-07-01T11:07:37;94513.41;;;15.07;77.47
71107;BME280;58763;47.982;11.516;2022-07-01T11:10:05;94505.25;;;15.07;76.69
71107;BME280;58763;47.982;11.516;2022-07-01T11:12:33;94501.63;;;14.98;77.60
71107;BME280;58763;47.982;11.516;2022-07-01T11:15:00;94506.84;;;15.08;77.70
71107;BME280;58763;47.982;11.516;2022-07-01T11:17:31;94509.94;;;15.15;77.03
71107;BME280;58763;47.982;11.516;2022-07-01T11:19:58;94516.91;;;15.21;76.18
71107;BME280;58763;47.982;11.516;2022-07-01T11:22:28;94510.56;;;15.26;76.59
71107;BME280;58763;47.982;11.516;2022-07-01T11:24:59;94516.56;;;15.36;77.19
71107;BME280;58763;47.982;11.516;2022-07-01T11:27:25;94520.72;;;15.47;75.85
71107;BME280;58763;47.982;11.516;2022-07-01T11:29:52;94533.72;;;15.50;75.37
71107;BME280;58763;47.982;11.516;2022-07-01T11:32:29;94537.03;;;15.61;75.63
71107;BME280;58763;47.982;11.516;2022-07-01T11:34:55;94525.31;;;15.60;75.06
71107;BME280;58763;47.982;11.516;2022-07-01T11:37:21;94504.56;;;15.51;75.12
71107;BME280;58763;47.982;11.516;2022-07-01T11:40:10;94508.16;;;15.60;75.91
71107;BME280;58763;47.982;11.516;2022-07-01T11:42:35;94518.72;;;15.61;75.22
71107;BME280;58763;47.982;11.516;2022-07-01T11:45:02;94544.78;;;15.67;77.08
71107;BME280;58763;47.982;11.516;2022-07-01T11:47:28;94560.16;;;15.85;75.32
71107;BME280;58763;47.982;11.516;2022-07-01T11:49:54;94561.72;;;16.00;74.06
71107;BME280;58763;47.982;11.516;2022-07-01T11:52:21;94562.47;;;16.14;73.81
71107;BME280;58763;47.982;11.516;2022-07-01T11:54:51;94542.91;;;16.21;74.08
71107;BME280;58763;47.982;11.516;2022-07-01T11:57:22;94534.25;;;16.19;73.77
71107;BME280;58763;47.982;11.516;2022-07-01T11:59:50;94521.25;;;16.24;72.96
71107;BME280;58763;47.982;11.516;2022-07-01T12:02:18;94524.81;;;16.25;73.71
71107;BME280;58763;47.982;11.516;2022-07-01T12:04:44;94526.88;;;16.19;74.09
71107;BME280;58763;47.982;11.516;2022-07-01T12:07:12;94520.34;;;16.29;74.22
71107;BME280;58763;47.982;11.516;2022-07-01T12:09:38;94514.09;;;16.28;73.24
71107;BME280;58763;47.982;11.516;2022-07-01T12:12:05;94524.34;;;16.31;72.93
71107;BME280;58763;47.982;11.516;2022-07-01T12:14:35;94526.44;;;16.04;73.96
71107;BME280;58763;47.982;11.516;2022-07-01T12:17:04;94535.13;;;15.83;74.89
71107;BME280;58763;47.982;11.516;2022-07-01T12:22:01;94534.00;;;15.62;75.69
71107;BME280;58763;47.982;11.516;2022-07-01T12:24:29;94525.69;;;15.67;76.00
71107;BME280;58763;47.982;11.516;2022-07-01T12:29:24;94553.34;;;15.74;76.19
71107;BME280;58763;47.982;11.516;2022-07-01T12:32:04;94565.59;;;15.63;76.94
71107;BME280;58763;47.982;11.516;2022-07-01T12:34:42;94573.59;;;15.46;76.62
71107;BME280;58763;47.982;11.516;2022-07-01T12:37:17;94600.44;;;15.39;77.39
71107;BME280;58763;47.982;11.516;2022-07-01T12:39:55;94611.13;;;15.22;77.19
71107;BME280;58763;47.982;11.516;2022-07-01T12:42:27;94610.75;;;15.15;78.56
71107;BME280;58763;47.982;11.516;2022-07-01T12:44:56;94604.38;;;15.19;78.09
71107;BME280;58763;47.982;11.516;2022-07-01T12:47:33;94602.69;;;15.23;77.97
71107;BME280;58763;47.982;11.516;2022-07-01T12:53:04;94631.34;;;15.21;77.40
71107;BME280;58763;47.982;11.516;2022-07-01T12:55:38;94634.56;;;15.23;77.46
71107;BME280;58763;47.982;11.516;2022-07-01T12:58:06;94613.75;;;15.27;77.06
71107;BME280;58763;47.982;11.516;2022-07-01T13:00:32;94597.34;;;15.18;77.10
71107;BME280;58763;47.982;11.516;2022-07-01T13:02:59;94597.03;;;15.20;77.91
71107;BME280;58763;47.982;11.516;2022-07-01T13:05:26;94583.91;;;15.22;79.41
71107;BME280;58763;47.982;11.516;2022-07-01T13:07:51;94591.75;;;15.37;78.71
71107;BME280;58763;47.982;11.516;2022-07-01T13:10:18;94604.47;;;15.55;79.21
71107;BME280;58763;47.982;11.516;2022-07-01T13:12:45;94607.75;;;15.79;77.42
71107;BME280;58763;47.982;11.516;2022-07-01T13:15:12;94609.25;;;15.85;75.33